createdAt,value
2018-02-03T01:35:19.309Z,41.34
2018-02-03T01:54:39.595Z,69.20
2018-02-03T01:55:39.618Z,72.00
2018-02-03T01:57:32.737Z,76.01
2018-02-03T01:58:32.718Z,77.44
2018-02-03T02:00:25.803Z,78.53
2018-02-03T02:01:25.803Z,78.45
2018-02-03T02:03:18.826Z,80.06
2018-02-03T02:04:18.884Z,80.98
2018-02-03T02:05:18.960Z,80.61
2018-02-03T02:06:19.026Z,80.95
2018-02-03T02:07:19.098Z,80.95
2018-02-03T02:08:19.175Z,81.77
2018-02-03T02:09:19.237Z,82.68
2018-02-03T02:10:19.314Z,83.06
2018-02-03T02:11:19.374Z,83.02
2018-02-03T02:12:19.457Z,83.21
2018-02-03T02:13:19.522Z,83.26
2018-02-03T02:14:19.596Z,84.12
2018-02-03T02:15:19.659Z,84.17
2018-02-03T02:16:19.734Z,84.65
2018-02-03T02:17:19.796Z,85.13
2018-02-03T02:18:19.871Z,85.32
2018-02-03T02:19:19.933Z,84.99
2018-02-03T02:20:20.005Z,85.18
2018-02-03T02:21:20.075Z,85.66
2018-02-03T02:22:20.152Z,85.75
2018-02-03T02:23:20.210Z,85.90
2018-02-03T02:24:20.282Z,85.90
2018-02-03T02:25:20.348Z,86.47
2018-02-03T02:26:20.416Z,86.57
2018-02-03T02:27:20.476Z,87.32
2018-02-03T02:28:20.551Z,87.04
2018-02-03T02:29:20.619Z,87.04
2018-02-03T02:30:20.692Z,87.38
2018-02-03T02:31:20.793Z,87.28
2018-02-03T02:32:20.834Z,87.47
2018-02-03T02:33:20.890Z,87.19
2018-02-03T02:34:20.957Z,87.47
2018-02-03T02:35:21.020Z,87.85
2018-02-03T02:36:21.089Z,88.13
2018-02-03T02:37:21.163Z,87.95
2018-02-03T02:38:21.224Z,87.66
2018-02-03T02:39:21.291Z,87.76
2018-02-03T02:40:21.379Z,87.71
2018-02-03T02:41:21.428Z,87.57
2018-02-03T02:42:21.493Z,88.42
2018-02-03T02:43:21.554Z,88.28
2018-02-03T02:44:21.631Z,88.09
2018-02-03T02:45:21.700Z,88.47
2018-02-03T02:46:21.760Z,88.47
2018-02-03T02:47:21.983Z,88.19
2018-02-03T02:48:21.897Z,88.57
2018-02-03T02:49:21.971Z,88.38
2018-02-03T02:50:22.072Z,88.57
2018-02-03T02:51:22.096Z,88.47
2018-02-03T02:52:22.165Z,88.47
2018-02-03T02:53:22.233Z,88.76
2018-02-03T02:54:22.297Z,88.95
2018-02-03T02:55:22.367Z,88.95
2018-02-03T02:56:22.426Z,88.85
2018-02-03T02:57:22.510Z,88.95
2018-02-03T02:58:22.566Z,88.85
2018-02-03T02:59:22.641Z,89.04
2018-02-03T03:00:22.695Z,88.85
2018-02-03T03:01:22.772Z,88.95
2018-02-03T03:02:22.836Z,88.76
2018-02-03T03:03:22.900Z,89.23
2018-02-03T03:04:22.967Z,89.61
2018-02-03T03:05:23.049Z,89.42
2018-02-03T03:06:23.106Z,89.14
2018-02-03T03:07:23.181Z,89.80
2018-02-03T03:08:23.243Z,89.14
2018-02-03T03:09:23.328Z,89.14
2018-02-03T03:10:23.366Z,89.52
2018-02-03T03:11:23.458Z,89.23
2018-02-03T03:12:23.500Z,89.52
2018-02-03T03:13:23.578Z,89.42
2018-02-03T03:14:23.671Z,89.42
2018-02-03T03:15:23.700Z,89.04
2018-02-03T03:16:23.767Z,89.52
2018-02-03T03:17:23.838Z,89.42
2018-02-03T03:18:23.973Z,89.42
2018-02-03T03:19:23.979Z,89.23
2018-02-03T03:20:24.044Z,89.86
2018-02-03T03:21:24.129Z,90.00
2018-02-03T03:22:24.173Z,89.95
2018-02-03T03:23:24.235Z,89.61
2018-02-03T03:24:24.307Z,89.80
2018-02-03T03:25:24.379Z,90.00
2018-02-03T03:26:24.439Z,90.00
2018-02-03T03:27:24.506Z,90.00
2018-02-03T03:28:24.598Z,89.71
2018-02-03T03:29:24.647Z,90.00
2018-02-03T03:30:24.724Z,89.33
2018-02-03T03:31:24.768Z,90.37
2018-02-03T03:32:24.838Z,89.71
2018-02-03T03:33:24.906Z,89.80
2018-02-03T03:34:24.966Z,89.71
2018-02-03T03:35:25.041Z,89.42
2018-02-03T03:36:25.097Z,89.71
2018-02-03T03:37:25.173Z,89.80
2018-02-03T03:38:25.239Z,90.28
2018-02-03T03:39:25.302Z,90.09
2018-02-03T03:40:25.367Z,90.00
2018-02-03T03:41:25.465Z,89.42
2018-02-03T03:42:25.505Z,89.61
2018-02-03T03:43:25.566Z,89.90
2018-02-03T03:44:25.646Z,89.90
2018-02-03T03:45:25.703Z,89.71
2018-02-03T03:46:25.772Z,90.00
2018-02-03T03:47:25.838Z,89.76
2018-02-03T03:48:25.904Z,89.76
2018-02-03T03:49:25.966Z,90.00
2018-02-03T03:50:26.037Z,90.33
2018-02-03T03:51:26.114Z,89.90
2018-02-03T03:52:26.177Z,90.19
2018-02-03T03:53:26.235Z,90.19
2018-02-03T03:54:26.303Z,90.61
2018-02-03T03:55:26.373Z,90.47
2018-02-03T03:56:26.433Z,90.05
2018-02-03T03:57:26.503Z,90.23
2018-02-03T03:58:26.584Z,90.05
2018-02-03T03:59:31.351Z,89.95
2018-02-03T04:00:26.725Z,90.33
2018-02-03T04:01:26.773Z,89.95
2018-02-03T04:02:26.836Z,90.14
2018-02-03T04:03:26.902Z,90.14
2018-02-03T04:04:26.966Z,90.42
2018-02-03T04:05:27.044Z,90.61
2018-02-03T04:06:27.100Z,90.52
2018-02-03T04:07:27.182Z,90.80
2018-02-03T04:08:27.237Z,90.42
2018-02-03T04:09:27.299Z,90.14
2018-02-03T04:10:27.369Z,90.33
2018-02-03T04:11:27.436Z,90.80
2018-02-03T04:12:27.507Z,90.56
2018-02-03T04:13:27.569Z,90.56
2018-02-03T04:14:27.632Z,90.47
2018-02-03T04:15:27.701Z,90.33
2018-02-03T04:16:27.772Z,90.61
2018-02-03T04:17:27.871Z,90.52
2018-02-03T04:18:27.899Z,90.71
2018-02-03T04:19:27.972Z,90.61
2018-02-03T04:20:28.029Z,90.71
2018-02-03T04:21:28.099Z,90.52
2018-02-03T04:22:28.164Z,90.99
2018-02-03T04:23:28.226Z,90.61
2018-02-03T04:24:28.301Z,91.23
2018-02-03T04:25:28.504Z,91.04
2018-02-03T04:26:28.431Z,91.42
2018-02-03T04:27:28.508Z,91.23
2018-02-03T04:28:28.567Z,90.56
2018-02-03T04:29:28.637Z,90.66
2018-02-03T04:30:28.702Z,91.13
2018-02-03T04:31:28.771Z,91.23
2018-02-03T04:32:28.842Z,91.33
2018-02-03T04:33:28.899Z,90.85
2018-02-03T04:34:28.965Z,91.42
2018-02-03T04:35:29.033Z,90.66
2018-02-03T04:36:29.101Z,90.75
2018-02-03T04:37:29.178Z,90.52
2018-02-03T04:38:29.275Z,90.75
2018-02-03T04:39:29.297Z,90.75
2018-02-03T04:40:29.373Z,90.66
2018-02-03T04:41:29.432Z,90.47
2018-02-03T04:42:29.501Z,90.75
2018-02-03T04:43:29.571Z,90.85
2018-02-03T04:44:29.626Z,90.85
2018-02-03T04:45:29.693Z,90.56
2018-02-03T04:46:29.768Z,90.66
2018-02-03T04:47:29.827Z,90.61
2018-02-03T04:48:29.918Z,90.47
2018-02-03T04:49:29.974Z,90.47
2018-02-03T04:50:30.038Z,90.56
2018-02-03T04:51:30.102Z,90.85
2018-02-03T04:52:30.168Z,90.66
2018-02-03T04:53:30.228Z,90.80
2018-02-03T04:54:30.299Z,90.75
2018-02-03T04:55:30.373Z,90.47
2018-02-03T04:56:30.434Z,90.37
2018-02-03T04:57:30.510Z,90.42
2018-02-03T04:58:30.571Z,90.33
2018-02-03T04:59:30.643Z,90.33
2018-02-03T05:00:30.701Z,90.42
2018-02-03T05:01:30.767Z,90.80
2018-02-03T05:02:30.832Z,90.80
2018-02-03T05:03:30.896Z,90.61
2018-02-03T05:04:30.970Z,90.61
2018-02-03T05:05:31.037Z,90.52
2018-02-03T05:06:31.098Z,90.61
2018-02-03T05:07:31.166Z,90.52
2018-02-03T05:08:31.238Z,90.42
2018-02-03T05:09:31.297Z,90.42
2018-02-03T05:10:31.363Z,90.90
2018-02-03T05:11:31.437Z,90.71
2018-02-03T05:12:31.502Z,90.71
2018-02-03T05:13:31.562Z,90.61
2018-02-03T05:14:31.638Z,90.61
2018-02-03T05:15:31.699Z,90.61
2018-02-03T05:16:31.766Z,90.71
2018-02-03T05:17:31.834Z,90.14
2018-02-03T05:18:31.894Z,90.42
2018-02-03T05:19:31.962Z,90.71
2018-02-03T05:20:32.032Z,90.80
2018-02-03T05:21:32.092Z,90.52
2018-02-03T05:22:32.160Z,90.42
2018-02-03T05:23:32.227Z,90.42
2018-02-03T05:24:32.295Z,90.42
2018-02-03T05:25:32.363Z,90.66
2018-02-03T05:26:32.429Z,90.52
2018-02-03T05:27:32.496Z,90.47
2018-02-03T05:28:32.559Z,90.61
2018-02-03T05:29:32.642Z,90.23
2018-02-03T05:30:32.694Z,90.14
2018-02-03T05:31:32.767Z,90.71
2018-02-03T05:32:32.834Z,90.52
2018-02-03T05:33:32.900Z,90.71
2018-02-03T05:34:32.964Z,90.71
2018-02-03T05:35:33.024Z,90.71
2018-02-03T05:36:33.098Z,90.14
2018-02-03T05:37:33.163Z,90.33
2018-02-03T05:38:33.224Z,90.33
2018-02-03T05:39:33.285Z,90.61
2018-02-03T05:40:33.401Z,90.61
2018-02-03T05:41:33.432Z,90.61
2018-02-03T05:42:33.494Z,90.71
2018-02-03T05:43:33.572Z,90.99
2018-02-03T05:44:33.629Z,90.42
2018-02-03T05:45:33.688Z,90.42
2018-02-03T05:46:33.764Z,90.71
2018-02-03T05:47:33.825Z,90.52
2018-02-03T05:48:33.896Z,90.71
2018-02-03T05:49:33.958Z,90.52
2018-02-03T05:50:34.073Z,90.99
2018-02-03T05:51:34.105Z,90.14
2018-02-03T05:52:34.156Z,90.42
2018-02-03T05:53:34.227Z,90.05
2018-02-03T05:54:34.296Z,90.33
2018-02-03T05:55:34.367Z,90.33
2018-02-03T05:56:34.419Z,90.61
2018-02-03T05:57:34.493Z,90.71
2018-02-03T05:58:34.557Z,90.71
2018-02-03T05:59:39.376Z,90.71
2018-02-03T06:00:34.703Z,90.71
2018-02-03T06:01:34.758Z,90.99
2018-02-03T06:02:34.830Z,90.61
2018-02-03T06:03:34.896Z,91.19
2018-02-03T06:04:34.954Z,90.52
2018-02-03T06:05:35.022Z,90.99
2018-02-03T06:06:35.664Z,90.52
2018-02-03T06:07:35.155Z,90.33
2018-02-03T06:08:35.217Z,90.80
2018-02-03T06:09:35.283Z,90.42
2018-02-03T06:10:35.408Z,90.99
2018-02-03T06:11:35.419Z,90.71
2018-02-03T06:12:35.488Z,90.99
2018-02-03T06:13:35.554Z,91.28
2018-02-03T06:14:35.623Z,91.19
2018-02-03T06:15:35.681Z,91.19
2018-02-03T06:16:35.749Z,90.66
2018-02-03T06:17:35.841Z,90.42
2018-02-03T06:18:35.880Z,89.90
2018-02-03T06:19:35.972Z,89.72
2018-02-03T06:20:36.016Z,90.00
2018-02-03T06:21:36.085Z,89.72
2018-02-03T06:22:36.152Z,89.72
2018-02-03T06:23:36.229Z,89.62
2018-02-03T06:24:36.293Z,89.76
2018-02-03T06:25:36.343Z,89.76
2018-02-03T06:26:36.415Z,89.48
2018-02-03T06:27:36.482Z,90.05
2018-02-03T06:28:36.543Z,90.33
2018-02-03T06:29:36.618Z,90.43
2018-02-03T06:30:36.674Z,90.33
2018-02-03T06:31:36.739Z,90.33
2018-02-03T06:32:36.813Z,90.62
2018-02-03T06:33:36.867Z,90.71
2018-02-03T06:34:36.937Z,90.52
2018-02-03T06:35:37.009Z,90.62
2018-02-03T06:36:37.107Z,90.71
2018-02-03T06:37:37.141Z,91.00
2018-02-03T06:38:37.199Z,90.43
2018-02-03T06:39:37.261Z,90.43
2018-02-03T06:40:37.333Z,90.62
2018-02-03T06:41:37.398Z,90.62
2018-02-03T06:42:37.465Z,90.52
2018-02-03T06:43:37.531Z,90.90
2018-02-03T06:44:37.591Z,90.43
2018-02-03T06:45:37.667Z,90.52
2018-02-03T06:46:37.734Z,90.43
2018-02-03T06:47:37.787Z,90.52
2018-02-03T06:48:37.857Z,90.52
2018-02-03T06:49:37.930Z,90.62
2018-02-03T06:50:37.995Z,90.52
2018-02-03T06:51:38.054Z,90.14
2018-02-03T06:52:38.123Z,90.62
2018-02-03T06:53:38.270Z,90.71
2018-02-03T06:54:38.256Z,90.52
2018-02-03T06:55:38.318Z,91.09
2018-02-03T06:56:38.390Z,91.09
2018-02-03T06:57:38.450Z,91.09
2018-02-03T06:58:38.522Z,91.00
2018-02-03T06:59:38.580Z,91.19
2018-02-03T07:00:38.644Z,91.09
2018-02-03T07:01:38.718Z,91.00
2018-02-03T07:02:38.786Z,90.90
2018-02-03T07:03:38.840Z,91.66
2018-02-03T07:04:38.909Z,91.61
2018-02-03T07:05:38.983Z,91.52
2018-02-03T07:06:39.039Z,91.24
2018-02-03T07:07:39.112Z,91.52
2018-02-03T07:08:39.175Z,91.04
2018-02-03T07:09:39.237Z,91.24
2018-02-03T07:10:39.308Z,91.14
2018-02-03T07:11:39.377Z,91.04
2018-02-03T07:12:39.444Z,90.95
2018-02-03T07:13:39.503Z,91.42
2018-02-03T07:14:39.582Z,91.33
2018-02-03T07:15:39.631Z,91.52
2018-02-03T07:16:39.692Z,91.42
2018-02-03T07:17:39.765Z,90.95
2018-02-03T07:18:39.822Z,91.24
2018-02-03T07:19:39.896Z,91.52
2018-02-03T07:20:39.961Z,91.24
2018-02-03T07:21:40.023Z,91.04
2018-02-03T07:22:40.161Z,90.76
2018-02-03T07:23:40.160Z,90.57
2018-02-03T07:24:40.272Z,90.38
2018-02-03T07:25:40.302Z,90.66
2018-02-03T07:26:40.366Z,91.04
2018-02-03T07:27:40.422Z,90.57
2018-02-03T07:28:40.492Z,90.95
2018-02-03T07:29:40.578Z,91.14
2018-02-03T07:30:40.622Z,91.14
2018-02-03T07:31:40.704Z,90.95
2018-02-03T07:32:40.748Z,90.76
2018-02-03T07:33:40.815Z,91.14
2018-02-03T07:34:40.881Z,91.04
2018-02-03T07:35:40.947Z,91.42
2018-02-03T07:36:41.022Z,91.14
2018-02-03T07:37:41.079Z,91.33
2018-02-03T07:38:41.149Z,91.24
2018-02-03T07:39:41.213Z,91.04
2018-02-03T07:40:41.298Z,90.66
2018-02-03T07:41:41.344Z,91.04
2018-02-03T07:42:41.406Z,91.61
2018-02-03T07:43:41.483Z,91.42
2018-02-03T07:44:41.574Z,91.85
2018-02-03T07:45:41.604Z,91.75
2018-02-03T07:46:41.676Z,91.85
2018-02-03T07:47:41.733Z,91.28
2018-02-03T07:48:41.805Z,91.09
2018-02-03T07:49:41.869Z,90.99
2018-02-03T07:50:41.942Z,91.09
2018-02-03T07:51:42.030Z,91.19
2018-02-03T07:52:42.072Z,91.19
2018-02-03T07:53:42.164Z,91.38
2018-02-03T07:54:42.208Z,90.80
2018-02-03T07:55:42.273Z,90.80
2018-02-03T07:56:42.333Z,91.28
2018-02-03T07:57:42.410Z,91.09
2018-02-03T07:58:42.478Z,90.80
2018-02-03T07:59:42.572Z,90.99
2018-02-03T08:00:42.615Z,91.09
2018-02-03T08:01:42.664Z,90.71
2018-02-03T08:02:42.732Z,90.71
2018-02-03T08:03:42.838Z,90.71
2018-02-03T08:04:42.871Z,90.14
2018-02-03T08:05:42.933Z,90.14
2018-02-03T08:06:43.008Z,89.95
2018-02-03T08:07:43.063Z,89.57
2018-02-03T08:08:43.131Z,89.67
2018-02-03T08:09:43.564Z,89.67
2018-02-03T08:10:43.797Z,89.67
2018-02-03T08:11:43.328Z,89.76
2018-02-03T08:12:43.398Z,89.86
2018-02-03T08:13:43.541Z,89.76
2018-02-03T08:14:43.539Z,89.86
2018-02-03T08:15:43.658Z,89.76
2018-02-03T08:16:43.666Z,89.57
2018-02-03T08:17:43.724Z,90.05
2018-02-03T08:18:43.792Z,89.67
2018-02-03T08:19:43.860Z,89.76
2018-02-03T08:20:43.922Z,89.57
2018-02-03T08:21:43.988Z,89.57
2018-02-03T08:22:44.062Z,89.86
2018-02-03T08:23:44.200Z,89.76
2018-02-03T08:24:44.187Z,90.14
2018-02-03T08:25:44.254Z,89.76
2018-02-03T08:26:44.348Z,89.95
2018-02-03T08:27:44.403Z,89.76
2018-02-03T08:28:44.464Z,89.57
2018-02-03T08:29:49.419Z,89.67
2018-02-03T08:30:44.603Z,89.95
2018-02-03T08:31:44.656Z,89.76
2018-02-03T08:32:44.725Z,89.76
2018-02-03T08:33:44.789Z,89.47
2018-02-03T08:34:44.850Z,89.57
2018-02-03T08:35:44.913Z,89.47
2018-02-03T08:36:45.035Z,89.57
2018-02-03T08:37:45.114Z,89.57
2018-02-03T08:38:45.127Z,89.57
2018-02-03T08:39:45.193Z,89.38
2018-02-03T08:40:45.242Z,89.61
2018-02-03T08:41:45.429Z,89.86
2018-02-03T08:42:45.384Z,89.61
2018-02-03T08:43:45.452Z,89.86
2018-02-03T08:44:45.535Z,89.90
2018-02-03T08:45:45.578Z,89.71
2018-02-03T08:46:45.702Z,89.61
2018-02-03T08:47:45.719Z,90.28
2018-02-03T08:48:45.777Z,89.90
2018-02-03T08:49:45.858Z,90.00
2018-02-03T08:50:45.904Z,89.42
2018-02-03T08:51:46.178Z,89.85
2018-02-03T08:52:46.043Z,89.85
2018-02-03T08:53:46.119Z,89.85
2018-02-03T08:54:46.168Z,90.04
2018-02-03T08:55:46.247Z,89.75
2018-02-03T08:56:46.315Z,90.04
2018-02-03T08:57:46.378Z,90.42
2018-02-03T08:58:46.447Z,89.66
2018-02-03T08:59:46.514Z,89.80
2018-02-03T09:00:46.583Z,90.18
2018-02-03T09:01:46.660Z,90.14
2018-02-03T09:02:46.717Z,89.80
2018-02-03T09:03:46.787Z,89.80
2018-02-03T09:04:46.855Z,89.80
2018-02-03T09:05:46.918Z,89.70
2018-02-03T09:06:46.981Z,89.89
2018-02-03T09:07:47.051Z,89.70
2018-02-03T09:08:47.112Z,90.18
2018-02-03T09:09:47.184Z,89.80
2018-02-03T09:10:47.252Z,89.99
2018-02-03T09:11:47.318Z,89.89
2018-02-03T09:12:47.386Z,89.42
2018-02-03T09:13:47.454Z,90.08
2018-02-03T09:14:47.516Z,89.42
2018-02-03T09:15:47.586Z,88.66
2018-02-03T09:16:47.651Z,88.75
2018-02-03T09:17:47.721Z,89.04
2018-02-03T09:18:47.782Z,88.56
2018-02-03T09:19:47.849Z,88.13
2018-02-03T09:20:47.913Z,88.04
2018-02-03T09:21:47.989Z,88.33
2018-02-03T09:22:48.063Z,88.33
2018-02-03T09:23:48.396Z,88.04
2018-02-03T09:24:48.206Z,88.13
2018-02-03T09:25:48.251Z,88.23
2018-02-03T09:26:48.321Z,88.33
2018-02-03T09:27:48.409Z,88.23
2018-02-03T09:28:48.455Z,87.52
2018-02-03T09:29:48.525Z,87.99
2018-02-03T09:30:48.609Z,87.42
2018-02-03T09:31:48.718Z,87.71
2018-02-03T09:32:48.718Z,87.71
2018-02-03T09:33:48.799Z,87.61
2018-02-03T09:34:48.863Z,87.80
2018-02-03T09:35:48.924Z,87.71
2018-02-03T09:36:48.990Z,88.46
2018-02-03T09:37:49.059Z,88.18
2018-02-03T09:38:49.127Z,88.18
2018-02-03T09:39:49.187Z,88.46
2018-02-03T09:40:49.266Z,88.46
2018-02-03T09:41:49.335Z,88.18
2018-02-03T09:42:49.391Z,88.18
2018-02-03T09:43:49.462Z,88.66
2018-02-03T09:44:49.557Z,88.85
2018-02-03T09:45:49.598Z,88.37
2018-02-03T09:46:49.659Z,88.66
2018-02-03T09:47:49.729Z,88.28
2018-02-03T09:48:49.801Z,87.90
2018-02-03T09:49:49.872Z,88.37
2018-02-03T09:50:49.932Z,88.28
2018-02-03T09:51:50.005Z,88.37
2018-02-03T09:52:50.106Z,88.66
2018-02-03T09:53:50.148Z,88.66
2018-02-03T09:54:50.202Z,88.46
2018-02-03T09:55:50.280Z,88.70
2018-02-03T09:56:50.337Z,88.32
2018-02-03T09:57:50.409Z,88.60
2018-02-03T09:58:50.470Z,87.94
2018-02-03T09:59:50.541Z,87.56
2018-02-03T10:00:50.607Z,87.37
2018-02-03T10:01:50.675Z,87.51
2018-02-03T10:02:50.742Z,87.60
2018-02-03T10:03:50.811Z,87.89
2018-02-03T10:04:50.878Z,88.37
2018-02-03T10:05:50.956Z,87.60
2018-02-03T10:06:51.012Z,87.60
2018-02-03T10:07:51.087Z,87.32
2018-02-03T10:08:51.152Z,87.51
2018-02-03T10:09:51.230Z,87.08
2018-02-03T10:10:51.295Z,87.18
2018-02-03T10:11:51.348Z,86.99
2018-02-03T10:12:51.442Z,86.99
2018-02-03T10:13:51.487Z,87.27
2018-02-03T10:14:51.565Z,87.56
2018-02-03T10:15:51.660Z,87.46
2018-02-03T10:16:51.696Z,87.94
2018-02-03T10:17:51.760Z,87.65
2018-02-03T10:18:51.824Z,87.27
2018-02-03T10:19:51.919Z,87.37
2018-02-03T10:20:51.991Z,86.90
2018-02-03T10:21:52.028Z,87.18
2018-02-03T10:22:52.094Z,87.46
2018-02-03T10:23:52.252Z,87.56
2018-02-03T10:24:52.222Z,88.13
2018-02-03T10:25:52.310Z,87.75
2018-02-03T10:26:52.367Z,88.60
2018-02-03T10:27:52.425Z,88.42
2018-02-03T10:28:52.525Z,88.42
2018-02-03T10:29:52.570Z,88.60
2018-02-03T10:30:52.643Z,88.32
2018-02-03T10:31:52.706Z,88.60
2018-02-03T10:32:52.764Z,88.51
2018-02-03T10:33:52.836Z,88.32
2018-02-03T10:34:52.909Z,88.51
2018-02-03T10:35:52.981Z,88.60
2018-02-03T10:36:53.047Z,88.13
2018-02-03T10:37:53.105Z,87.75
2018-02-03T10:38:53.225Z,87.65
2018-02-03T10:39:53.247Z,86.99
2018-02-03T10:40:53.314Z,87.03
2018-02-03T10:41:53.385Z,86.84
2018-02-03T10:42:53.443Z,86.65
2018-02-03T10:43:53.513Z,86.55
2018-02-03T10:44:53.581Z,85.99
2018-02-03T10:45:53.657Z,85.80
2018-02-03T10:46:53.718Z,85.41
2018-02-03T10:47:53.782Z,85.74
2018-02-03T10:48:53.859Z,85.46
2018-02-03T10:49:53.924Z,85.80
2018-02-03T10:50:53.987Z,85.93
2018-02-03T10:51:54.060Z,86.22
2018-02-03T10:52:54.123Z,86.22
2018-02-03T10:53:54.190Z,86.12
2018-02-03T10:54:54.258Z,85.93
2018-02-03T10:55:54.331Z,86.12
2018-02-03T10:56:54.398Z,86.51
2018-02-03T10:57:54.461Z,86.69
2018-02-03T10:58:54.530Z,86.79
2018-02-03T10:59:54.606Z,87.36
2018-02-03T11:00:54.668Z,86.32
2018-02-03T11:01:54.748Z,86.60
2018-02-03T11:02:54.828Z,86.65
2018-02-03T11:03:54.879Z,86.16
2018-02-03T11:04:54.939Z,85.97
2018-02-03T11:05:55.010Z,85.41
2018-02-03T11:06:55.080Z,85.02
2018-02-03T11:07:55.149Z,84.40
2018-02-03T11:08:55.273Z,83.92
2018-02-03T11:09:55.302Z,84.01
2018-02-03T11:10:55.369Z,84.30
2018-02-03T11:11:55.419Z,83.64
2018-02-03T11:12:55.491Z,83.69
2018-02-03T11:13:55.558Z,84.16
2018-02-03T11:14:55.624Z,83.97
2018-02-03T11:15:55.708Z,84.07
2018-02-03T11:16:55.770Z,84.83
2018-02-03T11:17:55.828Z,84.64
2018-02-03T11:18:55.910Z,84.45
2018-02-03T11:19:55.974Z,84.40
2018-02-03T11:20:56.038Z,84.40
2018-02-03T11:21:56.113Z,83.58
2018-02-03T11:22:56.186Z,83.77
2018-02-03T11:23:56.247Z,83.58
2018-02-03T11:24:56.326Z,83.24
2018-02-03T11:25:56.392Z,81.18
2018-02-03T11:26:56.456Z,80.41
2018-02-03T11:27:56.515Z,79.75
2018-02-03T11:28:56.585Z,78.99
2018-02-03T11:29:56.658Z,77.87
2018-02-03T11:30:56.727Z,77.15
2018-02-03T11:31:56.788Z,76.23
2018-02-03T11:32:56.870Z,74.68
2018-02-03T11:33:56.957Z,73.47
2018-02-03T11:34:57.007Z,72.71
2018-02-03T11:35:57.081Z,73.41
2018-02-03T11:36:57.149Z,73.03
2018-02-03T11:37:57.217Z,73.03
2018-02-03T11:38:57.396Z,73.09
2018-02-03T11:39:57.539Z,73.38
2018-02-03T11:40:57.444Z,73.38
2018-02-03T11:41:57.503Z,74.87
2018-02-03T11:42:57.609Z,75.60
2018-02-03T11:43:57.665Z,77.04
2018-02-03T11:44:57.734Z,77.48
2018-02-03T11:45:57.790Z,78.53
2018-02-03T11:46:57.852Z,79.68
2018-02-03T11:47:57.919Z,80.63
2018-02-03T11:48:58.031Z,79.33
2018-02-03T11:49:58.072Z,78.72
2018-02-03T11:50:58.153Z,79.16
2018-02-03T11:51:58.249Z,79.20
2018-02-03T11:52:58.286Z,78.81
2018-02-03T11:53:58.361Z,78.97
2018-02-03T11:54:58.424Z,79.16
2018-02-03T11:55:58.521Z,79.73
2018-02-03T11:56:58.583Z,79.98
2018-02-03T11:57:58.642Z,80.46
2018-02-03T11:58:58.710Z,80.74
2018-02-03T11:59:58.876Z,80.55
2018-02-03T12:00:58.851Z,80.46
2018-02-03T12:01:58.916Z,80.99
2018-02-03T12:02:58.985Z,81.27
2018-02-03T12:03:59.065Z,81.81
2018-02-03T12:04:59.122Z,81.90
2018-02-03T12:05:59.199Z,81.90
2018-02-03T12:06:59.266Z,82.86
2018-02-03T12:07:59.336Z,82.95
2018-02-03T12:08:59.408Z,82.95
2018-02-03T12:09:59.485Z,82.38
2018-02-03T12:10:59.551Z,82.38
2018-02-03T12:11:59.615Z,82.53
2018-02-03T12:12:59.689Z,82.72
2018-02-03T12:13:59.767Z,82.24
2018-02-03T12:14:59.857Z,83.11
2018-02-03T12:15:59.907Z,83.01
2018-02-03T12:16:59.973Z,83.77
2018-02-03T12:18:00.045Z,83.67
2018-02-03T12:19:00.106Z,83.39
2018-02-03T12:20:00.172Z,83.67
2018-02-03T12:21:00.257Z,83.77
2018-02-03T12:22:00.321Z,84.25
2018-02-03T12:23:00.384Z,84.06
2018-02-03T12:24:00.455Z,83.87
2018-02-03T12:25:00.580Z,83.39
2018-02-03T12:26:00.592Z,83.20
2018-02-03T12:27:00.667Z,82.82
2018-02-03T12:28:00.736Z,83.67
2018-02-03T12:29:00.805Z,83.01
2018-02-03T12:30:00.894Z,82.87
2018-02-03T12:31:00.939Z,82.78
2018-02-03T12:32:01.017Z,82.97
2018-02-03T12:33:01.155Z,82.97
2018-02-03T12:34:01.147Z,83.44
2018-02-03T12:35:01.225Z,84.01
2018-02-03T12:36:01.290Z,84.20
2018-02-03T12:37:01.358Z,84.59
2018-02-03T12:38:01.431Z,84.59
2018-02-03T12:39:01.500Z,84.78
2018-02-03T12:40:01.567Z,84.78
2018-02-03T12:41:01.637Z,84.78
2018-02-03T12:42:01.704Z,85.45
2018-02-03T12:43:01.773Z,86.11
2018-02-03T12:44:01.844Z,85.73
2018-02-03T12:45:01.914Z,85.45
2018-02-03T12:46:01.977Z,85.64
2018-02-03T12:47:02.051Z,86.07
2018-02-03T12:48:02.134Z,86.93
2018-02-03T12:49:02.197Z,86.93
2018-02-03T12:50:02.295Z,87.02
2018-02-03T12:51:02.327Z,87.21
2018-02-03T12:52:02.396Z,87.12
2018-02-03T12:53:02.494Z,87.16
2018-02-03T12:54:02.542Z,87.45
2018-02-03T12:55:02.607Z,86.78
2018-02-03T12:56:02.732Z,86.59
2018-02-03T12:57:02.744Z,86.78
2018-02-03T12:58:02.821Z,86.49
2018-02-03T12:59:02.894Z,86.30
2018-02-03T13:00:02.950Z,85.97
2018-02-03T13:01:03.018Z,86.25
2018-02-03T13:02:03.098Z,85.97
2018-02-03T13:03:03.382Z,86.35
2018-02-03T13:04:03.226Z,85.97
2018-02-03T13:05:03.300Z,86.06
2018-02-03T13:06:03.375Z,86.25
2018-02-03T13:07:03.430Z,85.97
2018-02-03T13:08:03.508Z,86.02
2018-02-03T13:09:03.599Z,85.83
2018-02-03T13:10:03.656Z,85.54
2018-02-03T13:11:03.706Z,86.11
2018-02-03T13:12:03.789Z,86.16
2018-02-03T13:13:03.858Z,86.45
2018-02-03T13:14:03.925Z,86.26
2018-02-03T13:15:04.000Z,87.50
2018-02-03T13:16:04.921Z,86.83
2018-02-03T13:17:04.130Z,86.88
2018-02-03T13:18:04.196Z,86.79
2018-02-03T13:19:04.263Z,87.07
2018-02-03T13:20:04.332Z,87.46
2018-02-03T13:21:04.412Z,86.75
2018-02-03T13:22:04.476Z,87.41
2018-02-03T13:23:04.554Z,87.89
2018-02-03T13:24:04.605Z,87.89
2018-02-03T13:25:04.756Z,87.89
2018-02-03T13:26:04.753Z,88.32
2018-02-03T13:27:04.818Z,88.23
2018-02-03T13:28:04.880Z,88.70
2018-02-03T13:29:04.954Z,88.99
2018-02-03T13:30:05.053Z,88.70
2018-02-03T13:31:05.085Z,89.37
2018-02-03T13:32:05.163Z,89.18
2018-02-03T13:33:05.253Z,88.89
2018-02-03T13:34:05.296Z,88.32
2018-02-03T13:35:05.362Z,88.42
2018-02-03T13:36:05.420Z,88.51
2018-02-03T13:37:05.499Z,88.13
2018-02-03T13:38:05.581Z,88.42
2018-02-03T13:39:05.664Z,88.13
2018-02-03T13:40:05.719Z,88.60
2018-02-03T13:41:05.769Z,89.18
2018-02-03T13:42:05.840Z,89.27
2018-02-03T13:43:05.917Z,89.08
2018-02-03T13:44:05.970Z,88.85
2018-02-03T13:45:06.053Z,88.75
2018-02-03T13:46:06.109Z,89.42
2018-02-03T13:47:06.178Z,88.56
2018-02-03T13:48:06.244Z,89.14
2018-02-03T13:49:06.317Z,89.14
2018-02-03T13:50:06.378Z,89.04
2018-02-03T13:51:06.480Z,89.51
2018-02-03T13:52:06.516Z,89.51
2018-02-03T13:53:06.585Z,89.14
2018-02-03T13:54:06.650Z,89.51
2018-02-03T13:55:07.300Z,90.28
2018-02-03T13:56:06.789Z,89.80
2018-02-03T13:57:06.854Z,89.80
2018-02-03T13:58:06.920Z,90.08
2018-02-03T13:59:07.004Z,89.89
2018-02-03T14:00:07.074Z,89.51
2018-02-03T14:01:07.121Z,89.14
2018-02-03T14:02:07.217Z,88.37
2018-02-03T14:03:07.258Z,88.18
2018-02-03T14:04:07.342Z,88.18
2018-02-03T14:05:07.392Z,88.32
2018-02-03T14:06:07.458Z,88.42
2018-02-03T14:07:07.523Z,87.85
2018-02-03T14:08:07.598Z,87.94
2018-02-03T14:09:07.659Z,87.85
2018-02-03T14:10:07.725Z,87.27
2018-02-03T14:11:07.809Z,87.46
2018-02-03T14:12:07.872Z,87.27
2018-02-03T14:13:07.931Z,86.99
2018-02-03T14:14:08.027Z,86.99
2018-02-03T14:15:08.201Z,87.18
2018-02-03T14:16:08.145Z,86.61
2018-02-03T14:17:08.203Z,87.75
2018-02-03T14:18:08.268Z,88.04
2018-02-03T14:19:08.345Z,88.04
2018-02-03T14:20:08.407Z,87.56
2018-02-03T14:21:08.486Z,86.99
2018-02-03T14:22:08.549Z,86.99
2018-02-03T14:23:08.620Z,87.08
2018-02-03T14:24:08.674Z,86.99
2018-02-03T14:25:08.742Z,87.27
2018-02-03T14:26:08.818Z,86.94
2018-02-03T14:27:08.890Z,86.94
2018-02-03T14:28:08.942Z,87.23
2018-02-03T14:29:40.994Z,87.71
2018-02-03T14:30:09.089Z,88.28
2018-02-03T14:31:09.163Z,88.56
2018-02-03T14:32:09.388Z,88.80
2018-02-03T14:33:09.294Z,89.00
2018-02-03T14:34:09.377Z,88.80
2018-02-03T14:35:09.434Z,89.51
2018-02-03T14:36:09.486Z,89.80
2018-02-03T14:37:09.722Z,90.08
2018-02-03T14:38:09.615Z,89.66
2018-02-03T14:39:09.693Z,89.66
2018-02-03T14:40:09.750Z,89.75
2018-02-03T14:41:09.828Z,90.14
2018-02-03T14:42:09.898Z,90.04
2018-02-03T14:43:09.968Z,90.14
2018-02-03T14:44:10.026Z,89.66
2018-02-03T14:45:10.115Z,89.85
2018-02-03T14:46:10.173Z,90.14
2018-02-03T14:47:10.228Z,90.14
2018-02-03T14:48:10.290Z,90.04
2018-02-03T14:49:10.362Z,90.14